createdAt,value
2019-03-11T00:02:40.401Z,6.35
2019-03-11T00:05:23.192Z,6.32
2019-03-11T00:08:04.616Z,6.24
2019-03-11T00:10:35.598Z,6.24
2019-03-11T00:13:26.018Z,6.25
2019-03-11T00:16:15.619Z,6.24
2019-03-11T00:19:05.306Z,6.17
2019-03-11T00:21:36.066Z,6.15
2019-03-11T00:24:07.560Z,6.10
2019-03-11T00:26:38.330Z,6.04
2019-03-11T00:29:09.125Z,6.03
2019-03-11T00:31:59.981Z,6.05
2019-03-11T00:34:30.764Z,6.11
2019-03-11T00:37:21.689Z,6.13
2019-03-11T00:39:52.630Z,6.10
2019-03-11T00:42:42.615Z,6.01
2019-03-11T00:45:14.571Z,5.99
2019-03-11T00:48:23.276Z,5.96
2019-03-11T00:50:54.070Z,5.92
2019-03-11T00:53:25.328Z,5.86
2019-03-11T00:55:56.213Z,5.80
2019-03-11T00:58:46.224Z,5.77
2019-03-11T01:01:36.004Z,5.80
2019-03-11T01:04:25.595Z,5.77
2019-03-11T01:06:56.448Z,5.81
2019-03-11T01:09:47.609Z,5.82
2019-03-11T01:12:37.264Z,5.77
2019-03-11T01:15:08.232Z,5.79
2019-03-11T01:18:16.760Z,5.74
2019-03-11T01:20:47.432Z,5.68
2019-03-11T01:23:18.124Z,5.64
2019-03-11T01:25:49.173Z,5.63
2019-03-11T01:28:19.894Z,5.67
2019-03-11T01:31:09.486Z,5.68
2019-03-11T01:33:40.195Z,5.67
2019-03-11T01:36:29.910Z,5.67
2019-03-11T01:39:19.537Z,5.63
2019-03-11T01:42:09.448Z,5.64
2019-03-11T01:44:59.245Z,5.64
2019-03-11T01:47:29.894Z,5.49
2019-03-11T01:50:19.822Z,5.59
2019-03-11T01:53:09.718Z,5.48
2019-03-11T01:55:59.405Z,5.45
2019-03-11T01:58:49.272Z,5.31
2019-03-11T02:01:31.386Z,5.10
2019-03-11T02:06:46.730Z,4.93
2019-03-11T02:09:36.666Z,5.05
2019-03-11T02:12:26.806Z,5.00
2019-03-11T02:15:16.506Z,4.92
2019-03-11T02:18:06.567Z,4.98
2019-03-11T02:20:56.433Z,4.84
2019-03-11T02:23:27.127Z,4.78
2019-03-11T02:25:58.323Z,4.70
2019-03-11T02:28:28.916Z,4.59
2019-03-11T02:31:10.311Z,4.66
2019-03-11T02:33:58.238Z,4.65
2019-03-11T02:36:39.947Z,4.73
2019-03-11T02:39:22.628Z,4.78
2019-03-11T02:41:53.973Z,4.78
2019-03-11T02:44:44.261Z,4.78
2019-03-11T02:47:26.518Z,4.80
2019-03-11T02:49:58.772Z,4.86
2019-03-11T02:52:48.816Z,4.95
2019-03-11T02:55:41.288Z,4.84
2019-03-11T02:58:31.459Z,4.88
2019-03-11T03:01:21.202Z,4.89
2019-03-11T03:09:50.263Z,4.44
2019-03-11T03:12:22.305Z,4.66
2019-03-11T03:15:12.145Z,4.84
2019-03-11T03:23:54.398Z,4.96
2019-03-11T03:26:26.146Z,5.00
2019-03-11T03:29:16.120Z,5.06
2019-03-11T03:31:47.190Z,5.14
2019-03-11T03:34:18.053Z,5.12
2019-03-11T03:36:51.533Z,5.10
2019-03-11T03:39:41.312Z,5.17
2019-03-11T03:42:13.633Z,5.19
2019-03-11T03:45:22.786Z,5.25
2019-03-11T03:47:54.463Z,5.28
2019-03-11T03:51:04.730Z,5.40
2019-03-11T03:54:13.259Z,5.41
2019-03-11T04:02:55.261Z,5.53
2019-03-11T04:05:26.964Z,5.51
2019-03-11T04:08:17.156Z,5.47
2019-03-11T04:11:08.343Z,5.42
2019-03-11T04:13:40.807Z,5.38
2019-03-11T04:16:13.580Z,5.35
2019-03-11T04:19:04.098Z,5.34
2019-03-11T04:21:57.462Z,5.32
2019-03-11T04:24:47.720Z,5.31
2019-03-11T04:27:22.985Z,5.34
2019-03-11T04:30:08.434Z,5.24
2019-03-11T04:35:56.022Z,5.24
2019-03-11T04:38:46.069Z,5.26
2019-03-11T04:41:20.533Z,5.28
2019-03-11T04:44:10.059Z,5.36
2019-03-11T04:46:41.004Z,5.34
2019-03-11T04:52:22.127Z,5.22
2019-03-11T04:55:27.391Z,5.13
2019-03-11T04:58:04.723Z,5.07
2019-03-11T05:00:54.638Z,5.10
2019-03-11T05:03:46.318Z,5.07
2019-03-11T05:06:17.994Z,4.97
2019-03-11T05:08:48.719Z,4.95
2019-03-11T05:11:38.652Z,4.94
2019-03-11T05:17:27.086Z,4.94
2019-03-11T05:19:57.821Z,4.90
2019-03-11T05:22:47.782Z,4.88
2019-03-11T05:25:37.609Z,4.84
2019-03-11T05:28:08.944Z,4.85
2019-03-11T05:30:39.891Z,4.81
2019-03-11T05:33:31.110Z,4.79
2019-03-11T05:36:20.760Z,4.71
2019-03-11T05:38:51.600Z,4.61
2019-03-11T05:41:41.531Z,4.55
2019-03-11T05:44:31.072Z,4.51
2019-03-11T05:47:04.073Z,4.51
2019-03-11T05:49:34.800Z,4.53
2019-03-11T05:52:26.487Z,4.56
2019-03-11T05:55:17.696Z,4.60
2019-03-11T05:57:49.121Z,4.68
2019-03-11T06:00:39.273Z,4.75
2019-03-11T06:03:10.225Z,4.86
2019-03-11T06:05:41.171Z,4.91
2019-03-11T06:08:23.803Z,5.02
2019-03-11T06:10:54.417Z,5.06
2019-03-11T06:13:35.295Z,5.14
2019-03-11T06:15:57.481Z,5.21
2019-03-11T06:18:52.865Z,5.27
2019-03-11T06:21:42.297Z,5.24
2019-03-11T06:24:32.049Z,5.22
2019-03-11T06:27:02.791Z,5.20
2019-03-11T06:29:52.751Z,5.22
2019-03-11T06:32:42.619Z,5.25
2019-03-11T06:38:45.868Z,5.35
2019-03-11T06:41:35.545Z,5.36
2019-03-11T06:44:06.360Z,4.53
2019-03-11T06:46:36.955Z,5.46
2019-03-11T06:49:26.549Z,5.49
2019-03-11T06:51:58.086Z,5.44
2019-03-11T06:54:31.851Z,5.54
2019-03-11T06:57:21.394Z,5.50
2019-03-11T07:00:04.345Z,5.55
2019-03-11T07:02:35.811Z,5.52
2019-03-11T07:05:06.826Z,5.47
2019-03-11T07:07:48.814Z,5.43
2019-03-11T07:10:31.091Z,5.41
2019-03-11T07:13:15.244Z,5.41
2019-03-11T07:15:54.455Z,5.42
2019-03-11T07:18:25.256Z,5.44
2019-03-11T07:20:56.045Z,5.41
2019-03-11T07:23:26.683Z,5.44
2019-03-11T07:25:59.622Z,5.44
2019-03-11T07:28:49.310Z,5.41
2019-03-11T07:31:20.137Z,5.45
2019-03-11T07:34:28.730Z,5.57
2019-03-11T07:37:19.456Z,5.53
2019-03-11T07:40:11.887Z,4.58
2019-03-11T07:42:43.185Z,5.44
2019-03-11T07:45:32.762Z,5.44
2019-03-11T07:48:03.673Z,5.31
2019-03-11T07:50:35.434Z,5.40
2019-03-11T07:53:25.045Z,5.45
2019-03-11T07:56:36.005Z,5.46
2019-03-11T07:59:08.230Z,4.95
2019-03-11T08:01:57.784Z,5.52
2019-03-11T08:04:47.575Z,5.53
2019-03-11T08:07:30.169Z,5.50
2019-03-11T08:10:00.867Z,5.46
2019-03-11T08:12:50.577Z,5.35
2019-03-11T08:15:42.334Z,5.21
2019-03-11T08:18:13.079Z,4.70
2019-03-11T08:21:03.322Z,3.83
2019-03-11T08:23:53.088Z,3.41
2019-03-11T08:26:24.002Z,3.10
2019-03-11T08:29:13.673Z,2.99
2019-03-11T08:32:03.226Z,2.97
2019-03-11T08:34:33.938Z,2.99
2019-03-11T08:37:23.483Z,3.40
2019-03-11T08:39:58.144Z,4.40
2019-03-11T08:45:12.882Z,7.18
2019-03-11T08:47:43.746Z,8.29
2019-03-11T08:50:52.133Z,8.83
2019-03-11T08:53:22.859Z,9.00
2019-03-11T08:56:12.393Z,8.71
2019-03-11T08:58:42.978Z,8.43
2019-03-11T09:01:32.666Z,7.96
2019-03-11T09:04:03.229Z,6.44
2019-03-11T09:06:33.904Z,7.54
2019-03-11T09:12:15.436Z,7.90
2019-03-11T09:15:05.293Z,7.66
2019-03-11T09:17:55.156Z,7.41
2019-03-11T09:20:44.660Z,6.96
2019-03-11T09:25:51.098Z,6.27
2019-03-11T09:28:21.836Z,6.29
2019-03-11T09:30:52.821Z,6.24
2019-03-11T09:33:42.398Z,6.41
2019-03-11T09:36:31.903Z,6.37
2019-03-11T09:39:03.009Z,6.46
2019-03-11T09:41:34.502Z,6.65
2019-03-11T09:44:15.136Z,6.60
2019-03-11T09:47:04.727Z,6.85
2019-03-11T09:49:54.244Z,7.21
2019-03-11T09:52:24.884Z,6.97
2019-03-11T09:55:14.436Z,6.74
2019-03-11T09:57:45.088Z,6.90
2019-03-11T10:00:18.424Z,6.93
2019-03-11T10:02:53.006Z,7.38
2019-03-11T10:05:41.375Z,7.65
2019-03-11T10:08:23.524Z,7.74
2019-03-11T10:11:05.317Z,7.66
2019-03-11T10:13:46.979Z,7.76
2019-03-11T10:16:17.650Z,7.63
2019-03-11T10:19:07.237Z,7.29
2019-03-11T10:21:39.038Z,7.46
2019-03-11T10:24:28.940Z,7.32
2019-03-11T10:27:18.629Z,7.35
2019-03-11T10:30:09.120Z,7.71
2019-03-11T10:32:58.635Z,7.60
2019-03-11T10:36:06.933Z,7.12
2019-03-11T10:38:37.824Z,6.98
2019-03-11T10:41:27.494Z,7.49
2019-03-11T10:43:58.099Z,7.82
2019-03-11T10:46:32.433Z,7.61
2019-03-11T10:49:03.357Z,7.63
2019-03-11T10:51:34.018Z,7.38
2019-03-11T10:54:04.753Z,6.96
2019-03-11T10:56:43.131Z,6.69
2019-03-11T10:59:13.769Z,6.60
2019-03-11T11:01:45.038Z,6.71
2019-03-11T11:04:35.126Z,6.97
2019-03-11T11:07:06.194Z,7.05
2019-03-11T11:09:37.769Z,7.22
2019-03-11T11:12:09.744Z,7.39
2019-03-11T11:15:02.474Z,7.42
2019-03-11T11:17:52.987Z,6.31
2019-03-11T11:20:26.374Z,6.98
2019-03-11T11:23:00.637Z,6.71
2019-03-11T11:25:33.941Z,6.75
2019-03-11T11:30:41.952Z,6.20
2019-03-11T11:33:31.546Z,6.16
2019-03-11T11:36:02.198Z,6.36
2019-03-11T11:38:35.325Z,6.55
2019-03-11T11:41:06.850Z,6.90
2019-03-11T11:43:37.589Z,6.82
2019-03-11T11:46:10.301Z,6.89
2019-03-11T11:49:03.794Z,6.96
2019-03-11T11:51:36.227Z,6.79
2019-03-11T11:54:08.076Z,7.04
2019-03-11T11:56:57.901Z,7.05
2019-03-11T11:59:28.934Z,6.96
2019-03-11T12:02:04.283Z,6.95
2019-03-11T12:04:55.194Z,7.08
2019-03-11T12:07:27.798Z,7.09
2019-03-11T12:10:18.540Z,7.22
2019-03-11T12:13:08.511Z,7.04
2019-03-11T12:15:40.754Z,6.66
2019-03-11T12:18:32.236Z,6.82
2019-03-11T12:21:24.189Z,6.07
2019-03-11T12:27:04.108Z,7.30
2019-03-11T12:29:34.984Z,6.98
2019-03-11T12:32:08.077Z,7.19
2019-03-11T12:35:02.466Z,7.27
2019-03-11T12:37:36.123Z,6.16
2019-03-11T12:43:38.653Z,6.95
2019-03-11T12:46:09.844Z,7.33
2019-03-11T12:48:41.105Z,7.52
2019-03-11T12:51:30.629Z,7.89
2019-03-11T12:54:03.232Z,8.61
2019-03-11T12:56:36.287Z,8.95
2019-03-11T12:59:11.425Z,8.55
2019-03-11T13:01:42.057Z,8.76
2019-03-11T13:04:32.779Z,8.24
2019-03-11T13:07:19.918Z,8.78
2019-03-11T13:09:52.422Z,8.53
2019-03-11T13:12:23.446Z,7.86
2019-03-11T13:15:14.504Z,7.90
2019-03-11T13:17:45.247Z,9.03
2019-03-11T13:20:35.060Z,10.64
2019-03-11T13:23:08.363Z,10.94
2019-03-11T13:25:41.308Z,9.88
2019-03-11T13:28:22.814Z,9.23
2019-03-11T13:34:36.200Z,8.46
2019-03-11T13:37:07.242Z,9.13
2019-03-11T13:39:37.891Z,8.43
2019-03-11T13:42:09.858Z,8.43
2019-03-11T13:44:59.464Z,8.63
2019-03-11T13:47:30.074Z,9.41
2019-03-11T13:50:01.615Z,9.48
2019-03-11T13:52:53.298Z,9.46
2019-03-11T13:55:24.058Z,9.55
2019-03-11T13:57:54.799Z,9.14
2019-03-11T14:00:44.288Z,9.14
2019-03-11T14:03:33.950Z,8.95
2019-03-11T14:06:23.532Z,8.41
2019-03-11T14:08:54.621Z,7.77
2019-03-11T14:11:26.095Z,7.27
2019-03-11T14:13:56.737Z,7.34
2019-03-11T14:16:47.362Z,8.92
2019-03-11T14:19:19.329Z,10.25
2019-03-11T14:22:08.973Z,11.07
2019-03-11T14:24:39.800Z,10.88
2019-03-11T14:27:10.733Z,9.46
2019-03-11T14:30:00.371Z,9.84
2019-03-11T14:32:31.043Z,9.60
2019-03-11T14:35:01.765Z,9.51
2019-03-11T14:37:32.794Z,8.77
2019-03-11T14:40:03.321Z,8.93
2019-03-11T14:42:34.080Z,8.02
2019-03-11T14:45:05.305Z,7.78
2019-03-11T14:47:54.927Z,7.90
2019-03-11T14:50:25.567Z,7.80
2019-03-11T14:52:56.295Z,7.63
2019-03-11T14:55:27.945Z,7.63
2019-03-11T14:58:00.973Z,7.87
2019-03-11T15:00:32.065Z,9.80
2019-03-11T15:03:03.293Z,11.72
2019-03-11T15:05:54.771Z,11.53
2019-03-11T15:08:25.795Z,11.57
2019-03-11T15:11:20.413Z,12.39
2019-03-11T15:13:51.528Z,13.39
2019-03-11T15:16:22.393Z,12.76
2019-03-11T15:19:05.002Z,11.52
2019-03-11T15:21:36.139Z,10.24
2019-03-11T15:24:27.000Z,9.67
2019-03-11T15:27:16.958Z,8.72
2019-03-11T15:29:48.840Z,8.20
2019-03-11T15:32:38.708Z,8.73
2019-03-11T15:35:10.457Z,9.08
2019-03-11T15:38:00.422Z,10.66
2019-03-11T15:41:10.374Z,13.06
2019-03-11T15:44:00.336Z,11.83
2019-03-11T15:46:38.917Z,9.47
2019-03-11T15:49:23.912Z,8.19
2019-03-11T15:52:14.087Z,7.77
2019-03-11T15:54:46.516Z,7.75
2019-03-11T15:57:39.121Z,7.64
2019-03-11T16:00:11.704Z,7.15
2019-03-11T16:03:01.581Z,6.68
2019-03-11T16:05:32.288Z,6.36
2019-03-11T16:08:42.670Z,5.80
2019-03-11T16:11:13.772Z,5.32
2019-03-11T16:13:45.514Z,4.95
2019-03-11T16:16:16.647Z,4.58
2019-03-11T16:21:31.571Z,4.99
2019-03-11T16:24:28.411Z,5.22
2019-03-11T16:27:01.487Z,5.11
2019-03-11T16:29:33.641Z,5.13
2019-03-11T16:32:26.190Z,4.86
2019-03-11T16:35:17.706Z,4.71
2019-03-11T16:37:50.783Z,4.56
2019-03-11T16:40:40.368Z,4.45
2019-03-11T16:43:15.840Z,4.48
2019-03-11T16:46:06.250Z,4.55
2019-03-11T16:48:38.311Z,4.55
2019-03-11T16:51:10.516Z,4.51
2019-03-11T16:53:41.975Z,4.45
2019-03-11T17:00:00.411Z,4.51
2019-03-11T17:02:31.394Z,3.95
2019-03-11T17:05:02.386Z,4.40
2019-03-11T17:07:33.508Z,4.37
2019-03-11T17:10:07.054Z,4.36
2019-03-11T17:12:37.931Z,4.25
2019-03-11T17:15:09.751Z,4.36
2019-03-11T17:17:41.766Z,4.36
2019-03-11T17:20:13.381Z,4.63
2019-03-11T17:22:44.171Z,4.71
2019-03-11T17:25:35.551Z,4.72
2019-03-11T17:28:06.481Z,4.74
2019-03-11T17:30:43.948Z,4.78
2019-03-11T17:33:35.186Z,4.80
2019-03-11T17:36:06.093Z,4.87
2019-03-11T17:38:56.200Z,4.94
2019-03-11T17:41:27.979Z,4.95
2019-03-11T17:44:00.496Z,4.93
2019-03-11T17:46:50.508Z,4.87
2019-03-11T17:49:41.275Z,4.86
2019-03-11T17:52:31.738Z,4.76
2019-03-11T17:55:21.447Z,4.52
2019-03-11T17:58:11.522Z,4.83
2019-03-11T18:00:54.461Z,4.93
2019-03-11T18:03:15.104Z,4.93
2019-03-11T18:05:46.333Z,4.83
2019-03-11T18:08:35.913Z,4.73
2019-03-11T18:11:27.074Z,4.64
2019-03-11T18:14:00.635Z,4.69
2019-03-11T18:16:37.160Z,4.61
2019-03-11T18:19:28.086Z,4.55
2019-03-11T18:22:18.508Z,3.65
2019-03-11T18:25:10.270Z,4.67
2019-03-11T18:27:42.933Z,4.83
2019-03-11T18:30:17.187Z,4.73
2019-03-11T18:33:09.274Z,4.83
2019-03-11T18:35:40.220Z,4.85
2019-03-11T18:38:11.708Z,5.04
2019-03-11T18:40:43.396Z,5.01
2019-03-11T18:43:20.532Z,4.98
2019-03-11T18:45:48.381Z,4.95
2019-03-11T18:48:38.417Z,4.99
2019-03-11T18:51:30.183Z,4.94
2019-03-11T18:54:20.011Z,4.83
2019-03-11T18:56:50.861Z,4.68
2019-03-11T18:59:22.197Z,4.69
2019-03-11T19:02:11.948Z,4.76
2019-03-11T19:05:02.633Z,4.86
2019-03-11T19:07:55.151Z,4.84
2019-03-11T19:10:25.638Z,4.90
2019-03-11T19:12:58.760Z,5.04
2019-03-11T19:15:32.691Z,5.03
2019-03-11T19:18:03.435Z,5.02
2019-03-11T19:20:52.942Z,5.03
2019-03-11T19:23:45.464Z,5.04
2019-03-11T19:26:37.812Z,5.06
2019-03-11T19:29:08.742Z,5.10
2019-03-11T19:31:39.845Z,5.17
2019-03-11T19:34:32.872Z,5.12
2019-03-11T19:37:04.749Z,5.13
2019-03-11T19:39:36.153Z,5.09
2019-03-11T19:42:26.193Z,5.05
2019-03-11T19:45:16.566Z,5.09
2019-03-11T19:48:06.786Z,5.06
2019-03-11T19:50:56.723Z,5.07
2019-03-11T19:53:28.189Z,5.01
2019-03-11T19:56:02.406Z,5.14
2019-03-11T19:58:33.429Z,5.12
2019-03-11T20:01:04.624Z,5.08
2019-03-11T20:03:38.644Z,5.09
2019-03-11T20:06:30.132Z,5.03
2019-03-11T20:09:43.502Z,5.07
2019-03-11T20:15:11.412Z,5.16
2019-03-11T20:24:02.102Z,5.00
2019-03-11T20:41:51.653Z,5.12
2019-03-11T20:47:12.739Z,5.01
2019-03-11T20:49:43.737Z,5.03
2019-03-11T20:52:14.494Z,5.05
2019-03-11T20:55:06.584Z,5.09
2019-03-11T20:57:38.091Z,5.11
2019-03-11T21:00:12.851Z,5.08
2019-03-11T21:02:43.605Z,5.04
2019-03-11T21:05:35.629Z,4.98
2019-03-11T21:08:09.402Z,5.04
2019-03-11T21:11:00.892Z,5.00
2019-03-11T21:13:33.495Z,4.96
2019-03-11T21:16:05.540Z,5.09
2019-03-11T21:18:36.824Z,4.98
2019-03-11T21:21:09.573Z,4.98
2019-03-11T21:23:40.536Z,4.97
2019-03-11T21:26:30.553Z,4.99
2019-03-11T21:29:20.058Z,4.78
2019-03-11T21:31:51.753Z,4.79
2019-03-11T21:34:41.326Z,4.71
2019-03-11T21:37:23.564Z,4.81
2019-03-11T21:40:04.956Z,4.66
2019-03-11T21:42:37.757Z,4.60
2019-03-11T21:45:10.605Z,4.51
2019-03-11T21:47:41.389Z,4.48
2019-03-11T21:50:16.414Z,4.53
2019-03-11T21:52:47.503Z,4.47
2019-03-11T21:55:19.132Z,4.40
2019-03-11T21:57:50.714Z,4.54
2019-03-11T22:00:40.562Z,4.60
2019-03-11T22:03:11.333Z,4.68
2019-03-11T22:06:01.098Z,4.84
2019-03-11T22:08:32.015Z,4.80
2019-03-11T22:11:02.973Z,4.85
2019-03-11T22:13:33.858Z,4.89
2019-03-11T22:16:05.093Z,4.82
2019-03-11T22:18:55.032Z,4.77
2019-03-11T22:21:26.079Z,4.72
2019-03-11T22:23:57.335Z,4.73
2019-03-11T22:26:28.552Z,4.71
2019-03-11T22:29:02.298Z,4.65
2019-03-11T22:31:33.130Z,4.64
2019-03-11T22:34:04.246Z,4.58
2019-03-11T22:36:35.657Z,4.58
2019-03-11T22:39:44.502Z,4.53
2019-03-11T22:42:34.787Z,4.55
2019-03-11T22:45:07.487Z,4.57
2019-03-11T22:47:58.773Z,4.55
2019-03-11T22:50:48.986Z,4.60
2019-03-11T22:53:39.245Z,4.60
2019-03-11T22:56:29.784Z,4.57
2019-03-11T22:59:19.658Z,4.50
2019-03-11T23:01:50.677Z,4.49
2019-03-11T23:04:41.331Z,4.53
2019-03-11T23:07:11.943Z,4.44
2019-03-11T23:09:53.685Z,4.42
2019-03-11T23:12:36.214Z,4.39
2019-03-11T23:15:18.098Z,4.32
2019-03-11T23:17:48.992Z,4.32
2019-03-11T23:20:19.871Z,4.30
2019-03-11T23:23:09.341Z,4.33
2019-03-11T23:26:00.812Z,4.37
2019-03-11T23:28:31.460Z,3.86
2019-03-11T23:31:21.193Z,4.17
2019-03-11T23:34:10.725Z,4.15
2019-03-11T23:36:41.495Z,4.21
2019-03-11T23:39:12.592Z,4.14
2019-03-11T23:41:43.958Z,4.19
2019-03-11T23:44:34.016Z,4.14
2019-03-11T23:47:24.180Z,4.19
2019-03-11T23:49:54.840Z,4.23
2019-03-11T23:52:44.886Z,4.27
2019-03-11T23:55:34.684Z,4.29
2019-03-11T23:58:24.592Z,4.28
